sensor_id;sensor_type;location;lat;lon;timestamp;temperature;humidity
29093;DHT22;16167;48.768;14.984;2023-07-20T00:00:00;15.90;73.40
29093;DHT22;16167;48.768;14.984;2023-07-20T00:02:49;15.90;75.40
29093;DHT22;16167;48.768;14.984;2023-07-20T00:05:19;15.90;78.30
29093;DHT22;16167;48.768;14.984;2023-07-20T00:07:48;15.90;82.30
29093;DHT22;16167;48.768;14.984;2023-07-20T00:10:19;15.90;80.30
29093;DHT22;16167;48.768;14.984;2023-07-20T00:12:47;15.90;69.90
29093;DHT22;16167;48.768;14.984;2023-07-20T00:15:15;15.90;80.20
29093;DHT22;16167;48.768;14.984;2023-07-20T00:17:44;15.90;83.60
29093;DHT22;16167;48.768;14.984;2023-07-20T00:20:12;16.00;78.70
29093;DHT22;16167;48.768;14.984;2023-07-20T00:22:42;16.00;75.70
29093;DHT22;16167;48.768;14.984;2023-07-20T00:25:10;16.00;70.30
29093;DHT22;16167;48.768;14.984;2023-07-20T00:27:39;16.00;75.90
29093;DHT22;16167;48.768;14.984;2023-07-20T00:30:08;16.10;73.60
29093;DHT22;16167;48.768;14.984;2023-07-20T00:32:36;16.10;72.90
29093;DHT22;16167;48.768;14.984;2023-07-20T00:35:05;16.10;77.30
29093;DHT22;16167;48.768;14.984;2023-07-20T00:37:33;16.10;78.60
29093;DHT22;16167;48.768;14.984;2023-07-20T00:40:03;16.10;77.20
29093;DHT22;16167;48.768;14.984;2023-07-20T00:42:31;16.00;71.60
29093;DHT22;16167;48.768;14.984;2023-07-20T00:45:00;16.00;70.20
29093;DHT22;16167;48.768;14.984;2023-07-20T00:47:28;16.00;67.20
29093;DHT22;16167;48.768;14.984;2023-07-20T00:49:56;15.90;63.40
29093;DHT22;16167;48.768;14.984;2023-07-20T00:52:25;15.90;57.60
29093;DHT22;16167;48.768;14.984;2023-07-20T00:54:56;15.90;57.90
29093;DHT22;16167;48.768;14.984;2023-07-20T00:57:26;15.80;54.30
29093;DHT22;16167;48.768;14.984;2023-07-20T00:59:55;15.70;53.60
29093;DHT22;16167;48.768;14.984;2023-07-20T01:02:23;15.70;52.30
29093;DHT22;16167;48.768;14.984;2023-07-20T01:04:52;15.70;49.50
29093;DHT22;16167;48.768;14.984;2023-07-20T01:07:25;15.70;56.50
29093;DHT22;16167;48.768;14.984;2023-07-20T01:10:01;15.60;47.70
29093;DHT22;16167;48.768;14.984;2023-07-20T01:12:39;15.60;50.40
29093;DHT22;16167;48.768;14.984;2023-07-20T01:15:09;15.50;55.70
29093;DHT22;16167;48.768;14.984;2023-07-20T01:17:38;15.50;58.60
29093;DHT22;16167;48.768;14.984;2023-07-20T01:20:07;15.40;56.40
29093;DHT22;16167;48.768;14.984;2023-07-20T01:23:00;15.40;57.90
29093;DHT22;16167;48.768;14.984;2023-07-20T01:25:53;15.40;70.70
29093;DHT22;16167;48.768;14.984;2023-07-20T01:28:57;15.30;72.10
29093;DHT22;16167;48.768;14.984;2023-07-20T01:31:32;15.20;81.30
29093;DHT22;16167;48.768;14.984;2023-07-20T01:34:02;15.30;80.30
29093;DHT22;16167;48.768;14.984;2023-07-20T01:36:34;15.20;82.90
29093;DHT22;16167;48.768;14.984;2023-07-20T01:39:03;15.20;81.60
29093;DHT22;16167;48.768;14.984;2023-07-20T01:41:31;15.20;82.00
29093;DHT22;16167;48.768;14.984;2023-07-20T01:44:03;15.20;90.30
29093;DHT22;16167;48.768;14.984;2023-07-20T01:46:32;15.20;91.00
29093;DHT22;16167;48.768;14.984;2023-07-20T01:49:01;15.30;91.10
29093;DHT22;16167;48.768;14.984;2023-07-20T01:51:29;15.20;90.40
29093;DHT22;16167;48.768;14.984;2023-07-20T01:53:57;15.20;83.20
29093;DHT22;16167;48.768;14.984;2023-07-20T01:56:26;15.20;81.90
29093;DHT22;16167;48.768;14.984;2023-07-20T01:58:54;15.20;84.10
29093;DHT22;16167;48.768;14.984;2023-07-20T02:01:23;15.20;89.10
29093;DHT22;16167;48.768;14.984;2023-07-20T02:03:52;15.10;90.30
29093;DHT22;16167;48.768;14.984;2023-07-20T02:06:21;15.10;88.50
29093;DHT22;16167;48.768;14.984;2023-07-20T02:08:50;15.20;90.50
29093;DHT22;16167;48.768;14.984;2023-07-20T02:11:18;15.10;87.10
29093;DHT22;16167;48.768;14.984;2023-07-20T02:13:46;15.10;83.90
29093;DHT22;16167;48.768;14.984;2023-07-20T02:16:14;15.10;90.30
29093;DHT22;16167;48.768;14.984;2023-07-20T02:18:42;15.10;90.90
29093;DHT22;16167;48.768;14.984;2023-07-20T02:21:12;15.10;89.00
29093;DHT22;16167;48.768;14.984;2023-07-20T02:23:40;15.10;87.70
29093;DHT22;16167;48.768;14.984;2023-07-20T02:26:09;15.10;90.50
29093;DHT22;16167;48.768;14.984;2023-07-20T02:28:37;15.10;91.10
29093;DHT22;16167;48.768;14.984;2023-07-20T02:31:05;15.10;92.30
29093;DHT22;16167;48.768;14.984;2023-07-20T02:33:33;15.10;93.50
29093;DHT22;16167;48.768;14.984;2023-07-20T02:36:01;15.10;93.90
29093;DHT22;16167;48.768;14.984;2023-07-20T02:38:31;15.10;93.40
29093;DHT22;16167;48.768;14.984;2023-07-20T02:40:59;15.00;92.60
29093;DHT22;16167;48.768;14.984;2023-07-20T02:43:27;15.00;93.40
29093;DHT22;16167;48.768;14.984;2023-07-20T02:45:55;15.00;90.70
29093;DHT22;16167;48.768;14.984;2023-07-20T02:48:23;15.00;80.30
29093;DHT22;16167;48.768;14.984;2023-07-20T02:50:51;15.00;78.60
29093;DHT22;16167;48.768;14.984;2023-07-20T02:53:20;15.00;87.30
29093;DHT22;16167;48.768;14.984;2023-07-20T02:55:49;15.00;90.90
29093;DHT22;16167;48.768;14.984;2023-07-20T02:58:17;15.00;91.40
29093;DHT22;16167;48.768;14.984;2023-07-20T03:00:45;14.90;93.30
29093;DHT22;16167;48.768;14.984;2023-07-20T03:03:13;14.90;91.70
29093;DHT22;16167;48.768;14.984;2023-07-20T03:05:42;14.90;84.80
29093;DHT22;16167;48.768;14.984;2023-07-20T03:08:10;14.90;87.00
29093;DHT22;16167;48.768;14.984;2023-07-20T03:10:39;14.90;90.80
29093;DHT22;16167;48.768;14.984;2023-07-20T03:13:09;14.90;92.10
29093;DHT22;16167;48.768;14.984;2023-07-20T03:15:37;14.90;92.40
29093;DHT22;16167;48.768;14.984;2023-07-20T03:18:05;14.90;94.60
29093;DHT22;16167;48.768;14.984;2023-07-20T03:20:35;14.90;93.80
29093;DHT22;16167;48.768;14.984;2023-07-20T03:23:03;14.90;93.30
29093;DHT22;16167;48.768;14.984;2023-07-20T03:25:32;14.90;94.10
29093;DHT22;16167;48.768;14.984;2023-07-20T03:28:00;14.90;93.50
29093;DHT22;16167;48.768;14.984;2023-07-20T03:30:30;14.90;95.00
29093;DHT22;16167;48.768;14.984;2023-07-20T03:32:57;14.90;93.90
29093;DHT22;16167;48.768;14.984;2023-07-20T03:35:26;14.90;95.00
29093;DHT22;16167;48.768;14.984;2023-07-20T03:37:54;15.00;93.30
29093;DHT22;16167;48.768;14.984;2023-07-20T03:40:22;15.00;95.00
29093;DHT22;16167;48.768;14.984;2023-07-20T03:42:51;15.00;94.30
29093;DHT22;16167;48.768;14.984;2023-07-20T03:45:20;15.00;91.40
29093;DHT22;16167;48.768;14.984;2023-07-20T03:47:52;15.00;92.90
29093;DHT22;16167;48.768;14.984;2023-07-20T03:50:20;15.00;93.20
29093;DHT22;16167;48.768;14.984;2023-07-20T03:52:48;15.00;93.30
29093;DHT22;16167;48.768;14.984;2023-07-20T03:55:16;15.10;90.70
29093;DHT22;16167;48.768;14.984;2023-07-20T03:57:44;15.00;87.20
29093;DHT22;16167;48.768;14.984;2023-07-20T04:00:13;15.00;88.60
29093;DHT22;16167;48.768;14.984;2023-07-20T04:02:43;15.10;89.80
29093;DHT22;16167;48.768;14.984;2023-07-20T04:05:12;15.10;87.60
29093;DHT22;16167;48.768;14.984;2023-07-20T04:07:40;15.10;90.40
29093;DHT22;16167;48.768;14.984;2023-07-20T04:10:09;15.10;91.80
29093;DHT22;16167;48.768;14.984;2023-07-20T04:12:37;15.10;90.80
29093;DHT22;16167;48.768;14.984;2023-07-20T04:15:07;15.20;89.60
29093;DHT22;16167;48.768;14.984;2023-07-20T04:17:35;15.20;90.60
29093;DHT22;16167;48.768;14.984;2023-07-20T04:20:04;15.20;89.70
29093;DHT22;16167;48.768;14.984;2023-07-20T04:22:34;15.30;89.40
29093;DHT22;16167;48.768;14.984;2023-07-20T04:25:03;15.30;91.20
29093;DHT22;16167;48.768;14.984;2023-07-20T04:27:31;15.40;91.70
29093;DHT22;16167;48.768;14.984;2023-07-20T04:29:59;15.40;88.20
29093;DHT22;16167;48.768;14.984;2023-07-20T04:32:28;15.50;83.10
29093;DHT22;16167;48.768;14.984;2023-07-20T04:34:56;15.60;84.80
29093;DHT22;16167;48.768;14.984;2023-07-20T04:37:24;15.60;82.80
29093;DHT22;16167;48.768;14.984;2023-07-20T04:39:54;15.70;87.10
29093;DHT22;16167;48.768;14.984;2023-07-20T04:42:22;15.80;87.50
29093;DHT22;16167;48.768;14.984;2023-07-20T04:44:50;15.90;86.60
29093;DHT22;16167;48.768;14.984;2023-07-20T04:47:18;15.90;87.80
29093;DHT22;16167;48.768;14.984;2023-07-20T04:49:46;16.00;81.90
29093;DHT22;16167;48.768;14.984;2023-07-20T04:52:15;16.00;78.50
29093;DHT22;16167;48.768;14.984;2023-07-20T04:54:43;16.10;80.60
29093;DHT22;16167;48.768;14.984;2023-07-20T04:57:13;16.30;74.30
29093;DHT22;16167;48.768;14.984;2023-07-20T04:59:41;16.40;60.00
29093;DHT22;16167;48.768;14.984;2023-07-20T05:02:09;16.50;71.20
29093;DHT22;16167;48.768;14.984;2023-07-20T05:04:37;16.60;62.90
29093;DHT22;16167;48.768;14.984;2023-07-20T05:07:06;16.70;66.30
29093;DHT22;16167;48.768;14.984;2023-07-20T05:09:34;16.80;63.80
29093;DHT22;16167;48.768;14.984;2023-07-20T05:12:02;16.90;61.00
29093;DHT22;16167;48.768;14.984;2023-07-20T05:14:32;17.00;55.60
29093;DHT22;16167;48.768;14.984;2023-07-20T05:17:00;17.10;56.30
29093;DHT22;16167;48.768;14.984;2023-07-20T05:19:28;17.20;45.90
29093;DHT22;16167;48.768;14.984;2023-07-20T05:21:57;17.30;46.60
29093;DHT22;16167;48.768;14.984;2023-07-20T05:24:25;17.50;43.90
29093;DHT22;16167;48.768;14.984;2023-07-20T05:26:53;17.60;38.70
29093;DHT22;16167;48.768;14.984;2023-07-20T05:29:21;17.70;36.50
29093;DHT22;16167;48.768;14.984;2023-07-20T05:31:51;17.90;36.60
29093;DHT22;16167;48.768;14.984;2023-07-20T05:34:19;18.00;35.40
29093;DHT22;16167;48.768;14.984;2023-07-20T05:36:47;18.20;27.50
29093;DHT22;16167;48.768;14.984;2023-07-20T05:39:17;18.30;25.30
29093;DHT22;16167;48.768;14.984;2023-07-20T05:41:45;18.40;27.10
29093;DHT22;16167;48.768;14.984;2023-07-20T05:44:13;18.60;18.80
29093;DHT22;16167;48.768;14.984;2023-07-20T05:46:41;18.70;13.70
29093;DHT22;16167;48.768;14.984;2023-07-20T05:49:24;18.90;12.90
29093;DHT22;16167;48.768;14.984;2023-07-20T05:51:52;19.00;12.50
29093;DHT22;16167;48.768;14.984;2023-07-20T05:54:20;19.20;6.40
29093;DHT22;16167;48.768;14.984;2023-07-20T05:56:48;19.30;1.00
29093;DHT22;16167;48.768;14.984;2023-07-20T05:59:16;19.50;1.00
29093;DHT22;16167;48.768;14.984;2023-07-20T06:01:46;19.60;2.40
29093;DHT22;16167;48.768;14.984;2023-07-20T06:04:15;19.80;1.00
29093;DHT22;16167;48.768;14.984;2023-07-20T06:06:45;20.00;1.00
29093;DHT22;16167;48.768;14.984;2023-07-20T06:09:13;20.10;1.00
29093;DHT22;16167;48.768;14.984;2023-07-20T06:11:41;20.30;1.00
29093;DHT22;16167;48.768;14.984;2023-07-20T06:14:09;20.40;1.00
29093;DHT22;16167;48.768;14.984;2023-07-20T06:16:38;20.50;1.00
29093;DHT22;16167;48.768;14.984;2023-07-20T06:19:06;20.60;1.00
29093;DHT22;16167;48.768;14.984;2023-07-20T06:21:34;20.80;1.00
29093;DHT22;16167;48.768;14.984;2023-07-20T06:24:04;20.90;1.00
29093;DHT22;16167;48.768;14.984;2023-07-20T06:26:32;21.10;1.00
29093;DHT22;16167;48.768;14.984;2023-07-20T06:29:05;21.30;1.00
29093;DHT22;16167;48.768;14.984;2023-07-20T06:31:34;21.50;1.00
29093;DHT22;16167;48.768;14.984;2023-07-20T06:34:03;21.60;1.00
29093;DHT22;16167;48.768;14.984;2023-07-20T06:36:31;21.70;1.00
29093;DHT22;16167;48.768;14.984;2023-07-20T06:38:59;21.80;1.00
29093;DHT22;16167;48.768;14.984;2023-07-20T06:41:33;21.80;1.00
29093;DHT22;16167;48.768;14.984;2023-07-20T06:44:04;21.90;1.00
29093;DHT22;16167;48.768;14.984;2023-07-20T06:46:32;22.00;1.00
29093;DHT22;16167;48.768;14.984;2023-07-20T06:49:00;22.00;1.00
29093;DHT22;16167;48.768;14.984;2023-07-20T06:51:31;22.10;1.00
29093;DHT22;16167;48.768;14.984;2023-07-20T06:54:00;22.10;1.00
29093;DHT22;16167;48.768;14.984;2023-07-20T06:56:32;22.20;1.00
29093;DHT22;16167;48.768;14.984;2023-07-20T06:59:01;22.20;1.00
29093;DHT22;16167;48.768;14.984;2023-07-20T07:01:30;22.20;1.00
29093;DHT22;16167;48.768;14.984;2023-07-20T07:03:58;22.20;1.00
29093;DHT22;16167;48.768;14.984;2023-07-20T07:06:27;22.20;1.00
29093;DHT22;16167;48.768;14.984;2023-07-20T07:08:56;22.20;1.00
29093;DHT22;16167;48.768;14.984;2023-07-20T07:11:24;22.20;1.00
29093;DHT22;16167;48.768;14.984;2023-07-20T07:13:54;22.30;1.00
29093;DHT22;16167;48.768;14.984;2023-07-20T07:16:23;22.30;1.00
29093;DHT22;16167;48.768;14.984;2023-07-20T07:18:52;22.40;1.00
29093;DHT22;16167;48.768;14.984;2023-07-20T07:21:26;22.50;1.00
29093;DHT22;16167;48.768;14.984;2023-07-20T07:23:54;22.60;1.00
29093;DHT22;16167;48.768;14.984;2023-07-20T07:26:24;22.60;1.00
29093;DHT22;16167;48.768;14.984;2023-07-20T07:28:54;22.60;1.00
29093;DHT22;16167;48.768;14.984;2023-07-20T07:31:22;22.50;1.00
29093;DHT22;16167;48.768;14.984;2023-07-20T07:33:51;22.50;1.00
29093;DHT22;16167;48.768;14.984;2023-07-20T07:36:19;22.50;1.00
29093;DHT22;16167;48.768;14.984;2023-07-20T07:38:48;22.50;1.00
29093;DHT22;16167;48.768;14.984;2023-07-20T07:41:36;22.60;1.00
29093;DHT22;16167;48.768;14.984;2023-07-20T07:44:05;22.80;1.00
29093;DHT22;16167;48.768;14.984;2023-07-20T07:46:34;23.00;1.00
29093;DHT22;16167;48.768;14.984;2023-07-20T07:49:02;23.30;1.00
29093;DHT22;16167;48.768;14.984;2023-07-20T07:51:30;23.60;1.00
29093;DHT22;16167;48.768;14.984;2023-07-20T07:53:58;23.70;1.00
29093;DHT22;16167;48.768;14.984;2023-07-20T07:56:27;23.70;1.00
29093;DHT22;16167;48.768;14.984;2023-07-20T07:58:55;23.70;1.00
29093;DHT22;16167;48.768;14.984;2023-07-20T08:01:25;23.80;1.00
29093;DHT22;16167;48.768;14.984;2023-07-20T08:03:53;23.80;1.00
29093;DHT22;16167;48.768;14.984;2023-07-20T08:06:21;23.80;1.00
29093;DHT22;16167;48.768;14.984;2023-07-20T08:08:51;23.80;1.00
29093;DHT22;16167;48.768;14.984;2023-07-20T08:11:19;23.90;1.00
29093;DHT22;16167;48.768;14.984;2023-07-20T08:13:47;24.20;1.00
29093;DHT22;16167;48.768;14.984;2023-07-20T08:16:15;24.40;1.00
29093;DHT22;16167;48.768;14.984;2023-07-20T08:18:45;24.70;1.00
29093;DHT22;16167;48.768;14.984;2023-07-20T08:21:14;24.90;1.00
29093;DHT22;16167;48.768;14.984;2023-07-20T08:23:42;25.00;1.00
29093;DHT22;16167;48.768;14.984;2023-07-20T08:26:10;25.10;1.00
29093;DHT22;16167;48.768;14.984;2023-07-20T08:28:38;25.10;1.00
29093;DHT22;16167;48.768;14.984;2023-07-20T08:31:06;25.20;1.00
29093;DHT22;16167;48.768;14.984;2023-07-20T08:33:35;25.50;1.00
29093;DHT22;16167;48.768;14.984;2023-07-20T08:36:04;25.80;1.00
29093;DHT22;16167;48.768;14.984;2023-07-20T08:38:45;25.90;1.00
29093;DHT22;16167;48.768;14.984;2023-07-20T08:41:14;26.00;1.00
29093;DHT22;16167;48.768;14.984;2023-07-20T08:43:43;26.20;1.00
29093;DHT22;16167;48.768;14.984;2023-07-20T08:46:13;26.60;1.00
29093;DHT22;16167;48.768;14.984;2023-07-20T08:48:43;26.50;1.00
29093;DHT22;16167;48.768;14.984;2023-07-20T08:51:14;26.20;1.00
29093;DHT22;16167;48.768;14.984;2023-07-20T08:53:45;26.30;1.00
29093;DHT22;16167;48.768;14.984;2023-07-20T08:56:14;26.20;1.00
29093;DHT22;16167;48.768;14.984;2023-07-20T08:58:44;26.40;1.00
29093;DHT22;16167;48.768;14.984;2023-07-20T09:01:12;26.40;1.00
29093;DHT22;16167;48.768;14.984;2023-07-20T09:03:42;26.10;1.00
29093;DHT22;16167;48.768;14.984;2023-07-20T09:06:12;26.50;1.00
29093;DHT22;16167;48.768;14.984;2023-07-20T09:08:41;26.90;1.00
29093;DHT22;16167;48.768;14.984;2023-07-20T09:11:12;27.50;1.00
29093;DHT22;16167;48.768;14.984;2023-07-20T09:13:40;27.60;1.00
29093;DHT22;16167;48.768;14.984;2023-07-20T09:16:09;27.30;1.00
29093;DHT22;16167;48.768;14.984;2023-07-20T09:18:41;27.00;1.00
29093;DHT22;16167;48.768;14.984;2023-07-20T09:21:10;26.90;1.00
29093;DHT22;16167;48.768;14.984;2023-07-20T09:23:39;27.20;1.00
29093;DHT22;16167;48.768;14.984;2023-07-20T09:26:11;27.70;1.00
29093;DHT22;16167;48.768;14.984;2023-07-20T09:28:44;27.80;1.00
29093;DHT22;16167;48.768;14.984;2023-07-20T09:31:15;27.50;1.00
29093;DHT22;16167;48.768;14.984;2023-07-20T09:33:44;27.50;1.00
29093;DHT22;16167;48.768;14.984;2023-07-20T09:36:15;27.10;1.00
29093;DHT22;16167;48.768;14.984;2023-07-20T09:39:04;27.20;1.00
29093;DHT22;16167;48.768;14.984;2023-07-20T09:41:40;27.40;1.00
29093;DHT22;16167;48.768;14.984;2023-07-20T09:44:14;27.80;1.00
29093;DHT22;16167;48.768;14.984;2023-07-20T09:46:46;28.00;1.00
29093;DHT22;16167;48.768;14.984;2023-07-20T09:49:17;28.60;1.00
29093;DHT22;16167;48.768;14.984;2023-07-20T09:51:48;28.80;1.00
29093;DHT22;16167;48.768;14.984;2023-07-20T09:54:19;28.80;1.00
29093;DHT22;16167;48.768;14.984;2023-07-20T09:56:51;28.80;1.00
29093;DHT22;16167;48.768;14.984;2023-07-20T09:59:19;28.90;1.00
29093;DHT22;16167;48.768;14.984;2023-07-20T10:01:49;28.90;1.00
29093;DHT22;16167;48.768;14.984;2023-07-20T10:04:21;29.10;1.00
29093;DHT22;16167;48.768;14.984;2023-07-20T10:06:53;29.30;1.00
29093;DHT22;16167;48.768;14.984;2023-07-20T10:09:24;29.20;1.00
29093;DHT22;16167;48.768;14.984;2023-07-20T10:11:53;29.50;1.00
29093;DHT22;16167;48.768;14.984;2023-07-20T10:14:26;29.70;1.00
29093;DHT22;16167;48.768;14.984;2023-07-20T10:16:58;30.00;1.00
29093;DHT22;16167;48.768;14.984;2023-07-20T10:19:34;30.10;1.00
29093;DHT22;16167;48.768;14.984;2023-07-20T10:22:07;30.10;1.00
29093;DHT22;16167;48.768;14.984;2023-07-20T10:24:39;30.40;1.00
29093;DHT22;16167;48.768;14.984;2023-07-20T10:27:07;30.30;1.00
29093;DHT22;16167;48.768;14.984;2023-07-20T10:29:36;30.30;1.00
29093;DHT22;16167;48.768;14.984;2023-07-20T10:32:06;30.30;1.00
29093;DHT22;16167;48.768;14.984;2023-07-20T10:34:35;30.70;1.00
29093;DHT22;16167;48.768;14.984;2023-07-20T10:37:04;31.00;1.00
29093;DHT22;16167;48.768;14.984;2023-07-20T10:39:32;31.20;1.00
29093;DHT22;16167;48.768;14.984;2023-07-20T10:42:07;31.00;1.00
29093;DHT22;16167;48.768;14.984;2023-07-20T10:44:37;30.90;1.00
29093;DHT22;16167;48.768;14.984;2023-07-20T10:47:09;30.70;1.00
29093;DHT22;16167;48.768;14.984;2023-07-20T10:49:59;30.10;1.00
29093;DHT22;16167;48.768;14.984;2023-07-20T10:52:36;29.40;1.00
29093;DHT22;16167;48.768;14.984;2023-07-20T10:55:10;28.90;1.00
29093;DHT22;16167;48.768;14.984;2023-07-20T10:57:41;28.30;1.00
29093;DHT22;16167;48.768;14.984;2023-07-20T11:00:10;27.70;1.00
29093;DHT22;16167;48.768;14.984;2023-07-20T11:02:43;28.20;1.00
29093;DHT22;16167;48.768;14.984;2023-07-20T11:05:37;28.20;1.00
29093;DHT22;16167;48.768;14.984;2023-07-20T11:08:10;28.50;1.00
29093;DHT22;16167;48.768;14.984;2023-07-20T11:10:39;28.80;1.00
29093;DHT22;16167;48.768;14.984;2023-07-20T11:13:27;29.40;1.00
29093;DHT22;16167;48.768;14.984;2023-07-20T11:16:04;30.10;1.00
29093;DHT22;16167;48.768;14.984;2023-07-20T11:18:34;30.60;1.00
29093;DHT22;16167;48.768;14.984;2023-07-20T11:21:08;30.70;1.00
29093;DHT22;16167;48.768;14.984;2023-07-20T11:23:38;31.10;1.00
29093;DHT22;16167;48.768;14.984;2023-07-20T11:26:07;30.30;1.00
29093;DHT22;16167;48.768;14.984;2023-07-20T11:28:37;29.70;1.00
29093;DHT22;16167;48.768;14.984;2023-07-20T11:31:05;29.10;1.00
29093;DHT22;16167;48.768;14.984;2023-07-20T11:33:33;28.70;1.00
29093;DHT22;16167;48.768;14.984;2023-07-20T11:36:01;28.90;1.00
29093;DHT22;16167;48.768;14.984;2023-07-20T11:38:49;28.80;1.00
29093;DHT22;16167;48.768;14.984;2023-07-20T11:41:19;28.50;1.00
29093;DHT22;16167;48.768;14.984;2023-07-20T11:43:49;28.30;1.00
29093;DHT22;16167;48.768;14.984;2023-07-20T11:46:17;28.20;1.00
29093;DHT22;16167;48.768;14.984;2023-07-20T11:48:45;28.00;1.00
29093;DHT22;16167;48.768;14.984;2023-07-20T11:51:14;28.70;1.00
29093;DHT22;16167;48.768;14.984;2023-07-20T11:53:44;29.10;1.00
29093;DHT22;16167;48.768;14.984;2023-07-20T11:56:14;28.80;1.00
29093;DHT22;16167;48.768;14.984;2023-07-20T11:58:43;28.50;1.00
29093;DHT22;16167;48.768;14.984;2023-07-20T12:01:12;28.10;1.00
29093;DHT22;16167;48.768;14.984;2023-07-20T12:03:42;27.80;1.00
29093;DHT22;16167;48.768;14.984;2023-07-20T12:06:11;27.50;1.00
29093;DHT22;16167;48.768;14.984;2023-07-20T12:08:39;27.20;1.00
29093;DHT22;16167;48.768;14.984;2023-07-20T12:11:08;27.00;1.00
29093;DHT22;16167;48.768;14.984;2023-07-20T12:13:38;26.90;1.00
29093;DHT22;16167;48.768;14.984;2023-07-20T12:16:10;26.70;1.00
29093;DHT22;16167;48.768;14.984;2023-07-20T12:18:41;27.10;1.00
29093;DHT22;16167;48.768;14.984;2023-07-20T12:21:10;27.50;1.00
29093;DHT22;16167;48.768;14.984;2023-07-20T12:23:40;27.30;1.00
29093;DHT22;16167;48.768;14.984;2023-07-20T12:26:09;27.30;1.00
29093;DHT22;16167;48.768;14.984;2023-07-20T12:28:40;27.60;1.00
29093;DHT22;16167;48.768;14.984;2023-07-20T12:31:09;28.40;1.00
29093;DHT22;16167;48.768;14.984;2023-07-20T12:33:43;29.10;1.00
29093;DHT22;16167;48.768;14.984;2023-07-20T12:36:12;29.70;1.00
29093;DHT22;16167;48.768;14.984;2023-07-20T12:38:40;30.20;1.00
29093;DHT22;16167;48.768;14.984;2023-07-20T12:41:10;30.50;1.00
29093;DHT22;16167;48.768;14.984;2023-07-20T12:43:40;30.70;1.00
29093;DHT22;16167;48.768;14.984;2023-07-20T12:46:09;30.90;1.00
29093;DHT22;16167;48.768;14.984;2023-07-20T12:48:38;31.30;1.00
29093;DHT22;16167;48.768;14.984;2023-07-20T12:51:13;32.00;1.00
29093;DHT22;16167;48.768;14.984;2023-07-20T12:53:41;32.50;1.00
29093;DHT22;16167;48.768;14.984;2023-07-20T12:56:10;33.00;1.00
29093;DHT22;16167;48.768;14.984;2023-07-20T12:58:41;32.90;1.00
29093;DHT22;16167;48.768;14.984;2023-07-20T13:01:09;32.90;1.00
29093;DHT22;16167;48.768;14.984;2023-07-20T13:03:37;32.30;1.00
29093;DHT22;16167;48.768;14.984;2023-07-20T13:06:27;32.40;1.00
29093;DHT22;16167;48.768;14.984;2023-07-20T13:08:55;31.80;1.00
29093;DHT22;16167;48.768;14.984;2023-07-20T13:11:25;32.20;1.00
29093;DHT22;16167;48.768;14.984;2023-07-20T13:13:53;32.80;1.00
29093;DHT22;16167;48.768;14.984;2023-07-20T13:16:22;32.60;1.00
29093;DHT22;16167;48.768;14.984;2023-07-20T13:18:50;31.90;1.00
29093;DHT22;16167;48.768;14.984;2023-07-20T13:21:18;31.30;1.00
29093;DHT22;16167;48.768;14.984;2023-07-20T13:23:52;30.60;1.00
29093;DHT22;16167;48.768;14.984;2023-07-20T13:26:20;30.60;1.00
29093;DHT22;16167;48.768;14.984;2023-07-20T13:28:49;30.40;1.00
29093;DHT22;16167;48.768;14.984;2023-07-20T13:31:17;30.30;1.00
29093;DHT22;16167;48.768;14.984;2023-07-20T13:33:45;29.90;1.00
29093;DHT22;16167;48.768;14.984;2023-07-20T13:36:23;29.80;1.00
29093;DHT22;16167;48.768;14.984;2023-07-20T13:38:53;30.50;1.00
29093;DHT22;16167;48.768;14.984;2023-07-20T13:41:21;31.40;1.00
29093;DHT22;16167;48.768;14.984;2023-07-20T13:43:50;32.30;1.00
29093;DHT22;16167;48.768;14.984;2023-07-20T13:46:23;31.90;1.00
29093;DHT22;16167;48.768;14.984;2023-07-20T13:48:54;32.40;1.00
29093;DHT22;16167;48.768;14.984;2023-07-20T13:51:24;32.90;1.00
29093;DHT22;16167;48.768;14.984;2023-07-20T13:53:57;33.30;1.00
29093;DHT22;16167;48.768;14.984;2023-07-20T13:56:45;33.70;1.00
29093;DHT22;16167;48.768;14.984;2023-07-20T13:59:13;34.10;1.00
29093;DHT22;16167;48.768;14.984;2023-07-20T14:01:41;34.30;1.00
29093;DHT22;16167;48.768;14.984;2023-07-20T14:04:10;34.60;1.00
29093;DHT22;16167;48.768;14.984;2023-07-20T14:06:38;34.40;1.00
29093;DHT22;16167;48.768;14.984;2023-07-20T14:09:08;33.60;1.00
29093;DHT22;16167;48.768;14.984;2023-07-20T14:11:36;33.50;1.00
29093;DHT22;16167;48.768;14.984;2023-07-20T14:14:06;33.40;1.00
29093;DHT22;16167;48.768;14.984;2023-07-20T14:16:34;33.80;1.00
29093;DHT22;16167;48.768;14.984;2023-07-20T14:19:03;34.00;1.00
29093;DHT22;16167;48.768;14.984;2023-07-20T14:21:32;34.20;1.00
29093;DHT22;16167;48.768;14.984;2023-07-20T14:24:00;34.20;1.00
29093;DHT22;16167;48.768;14.984;2023-07-20T14:26:30;33.90;1.00
29093;DHT22;16167;48.768;14.984;2023-07-20T14:28:59;34.10;1.00
29093;DHT22;16167;48.768;14.984;2023-07-20T14:31:28;34.40;1.00
29093;DHT22;16167;48.768;14.984;2023-07-20T14:33:58;34.60;1.00
29093;DHT22;16167;48.768;14.984;2023-07-20T14:36:26;34.80;1.00
29093;DHT22;16167;48.768;14.984;2023-07-20T14:38:55;34.60;1.00
29093;DHT22;16167;48.768;14.984;2023-07-20T14:41:23;34.10;1.00
29093;DHT22;16167;48.768;14.984;2023-07-20T14:43:54;33.40;1.00
29093;DHT22;16167;48.768;14.984;2023-07-20T14:46:24;32.60;1.00
29093;DHT22;16167;48.768;14.984;2023-07-20T14:48:52;32.00;1.00
29093;DHT22;16167;48.768;14.984;2023-07-20T14:51:21;31.40;1.00
29093;DHT22;16167;48.768;14.984;2023-07-20T14:53:49;31.00;1.00
29093;DHT22;16167;48.768;14.984;2023-07-20T14:56:17;30.70;1.00
29093;DHT22;16167;48.768;14.984;2023-07-20T14:58:45;30.40;1.00
29093;DHT22;16167;48.768;14.984;2023-07-20T15:01:14;30.40;1.00
29093;DHT22;16167;48.768;14.984;2023-07-20T15:03:43;30.20;1.00
29093;DHT22;16167;48.768;14.984;2023-07-20T15:06:11;30.30;1.00
29093;DHT22;16167;48.768;14.984;2023-07-20T15:08:39;30.00;1.00
29093;DHT22;16167;48.768;14.984;2023-07-20T15:11:07;29.60;1.00
29093;DHT22;16167;48.768;14.984;2023-07-20T15:13:35;29.50;1.00
29093;DHT22;16167;48.768;14.984;2023-07-20T15:16:03;29.30;1.00
29093;DHT22;16167;48.768;14.984;2023-07-20T15:18:33;29.00;1.00
29093;DHT22;16167;48.768;14.984;2023-07-20T15:21:14;28.70;1.00
29093;DHT22;16167;48.768;14.984;2023-07-20T15:23:43;28.40;1.00
29093;DHT22;16167;48.768;14.984;2023-07-20T15:26:11;28.40;1.00
29093;DHT22;16167;48.768;14.984;2023-07-20T15:28:39;28.30;1.00
29093;DHT22;16167;48.768;14.984;2023-07-20T15:31:08;28.20;1.00
29093;DHT22;16167;48.768;14.984;2023-07-20T15:33:37;28.00;1.00
29093;DHT22;16167;48.768;14.984;2023-07-20T15:36:05;27.90;1.00
29093;DHT22;16167;48.768;14.984;2023-07-20T15:38:35;27.90;1.00
29093;DHT22;16167;48.768;14.984;2023-07-20T15:41:03;28.00;1.00